Time;durP1;ratioP1;P1;durP2;ratioP2;P2;SDS_P1;SDS_P2;PMS_P1;PMS_P2;Temp;Humidity;BMP_temperature;BMP_pressure;BME280_temperature;BME280_humidity;BME280_pressure;Samples;Min_cycle;Max_cycle;Signal;HPM_P1;HPM_P2
2022/02/21 00:00:20;;;;;;;16.48;10.68;;;10.30;99.90;;;;;;5087351;28;20421;-76
2022/02/21 00:02:50;;;;;;;16.45;10.57;;;10.20;99.90;;;;;;5083558;28;20043;-81
2022/02/21 00:05:18;;;;;;;16.45;10.60;;;10.20;99.90;;;;;;5080726;28;20462;-77
2022/02/21 00:07:46;;;;;;;14.68;10.52;;;10.10;99.90;;;;;;5083747;28;20040;-76
2022/02/21 00:10:16;;;;;;;14.68;9.60;;;10.20;99.90;;;;;;5078166;28;20374;-76
2022/02/21 00:12:44;;;;;;;14.57;10.45;;;10.20;99.90;;;;;;5092898;28;20040;-73
2022/02/21 00:15:15;;;;;;;12.75;9.38;;;10.10;99.90;;;;;;5092369;28;20044;-78
2022/02/21 00:17:42;;;;;;;13.23;9.48;;;10.10;99.90;;;;;;5092706;28;20036;-77
2022/02/21 00:20:10;;;;;;;13.00;9.80;;;10.10;99.90;;;;;;5074191;28;20051;-80
2022/02/21 00:22:37;;;;;;;13.23;9.52;;;10.30;99.90;;;;;;5085792;28;20040;-77
2022/02/21 00:25:05;;;;;;;15.13;9.98;;;10.20;99.90;;;;;;5071999;28;20046;-75
2022/02/21 00:27:32;;;;;;;15.48;10.38;;;10.10;99.90;;;;;;5072014;28;20043;-80
2022/02/21 00:29:59;;;;;;;15.13;9.73;;;9.90;99.90;;;;;;5072560;28;20404;-73
2022/02/21 00:32:26;;;;;;;13.82;9.15;;;10.00;99.90;;;;;;5072709;28;20036;-79
2022/02/21 00:34:54;;;;;;;14.35;10.88;;;9.90;99.90;;;;;;5080032;28;20040;-75
2022/02/21 00:37:21;;;;;;;17.40;9.70;;;10.00;99.90;;;;;;5092361;28;20055;-72
2022/02/21 00:39:49;;;;;;;15.93;10.57;;;10.00;99.90;;;;;;5092690;28;20043;-79
2022/02/21 00:42:21;;;;;;;15.60;10.38;;;10.10;99.90;;;;;;5092657;28;20396;-77
2022/02/21 00:44:49;;;;;;;12.57;9.88;;;10.20;99.90;;;;;;5073996;28;20040;-77
2022/02/21 00:47:16;;;;;;;15.52;10.65;;;10.20;99.90;;;;;;5092165;28;20047;-77
2022/02/21 00:49:43;;;;;;;14.07;9.77;;;10.30;99.90;;;;;;5091463;28;20055;-75
2022/02/21 00:52:10;;;;;;;17.02;10.45;;;10.30;99.90;;;;;;5092369;28;20420;-80
2022/02/21 00:54:37;;;;;;;17.35;10.00;;;10.30;99.90;;;;;;5092231;28;20044;-72
2022/02/21 00:57:05;;;;;;;17.63;10.65;;;10.20;99.90;;;;;;5092069;28;20036;-73
2022/02/21 00:59:32;;;;;;;14.98;10.38;;;10.10;99.90;;;;;;5092476;28;20063;-79
2022/02/21 01:01:59;;;;;;;16.30;10.95;;;9.80;99.90;;;;;;5092585;28;20047;-76
2022/02/21 01:04:26;;;;;;;17.45;11.18;;;9.70;99.90;;;;;;5092284;28;20040;-76
2022/02/21 01:06:55;;;;;;;18.10;12.00;;;9.70;99.90;;;;;;5092070;28;20040;-80
2022/02/21 01:09:23;;;;;;;18.73;11.63;;;9.60;99.90;;;;;;5092218;28;20036;-78
2022/02/21 01:11:50;;;;;;;15.23;11.25;;;9.60;99.90;;;;;;5069646;28;20106;-79
2022/02/21 01:14:18;;;;;;;17.73;11.80;;;9.80;99.90;;;;;;5071438;28;20063;-76
2022/02/21 01:16:45;;;;;;;16.98;11.70;;;9.90;99.90;;;;;;5071639;28;20045;-73
2022/02/21 01:19:12;;;;;;;15.95;11.13;;;10.00;99.90;;;;;;5071239;28;20051;-75
2022/02/21 01:21:39;;;;;;;19.15;11.57;;;9.90;99.90;;;;;;5071404;28;20040;-75
2022/02/21 01:24:07;;;;;;;23.98;12.73;;;9.80;99.90;;;;;;5071313;28;20048;-77
2022/02/21 01:26:34;;;;;;;18.30;11.55;;;9.70;99.90;;;;;;5069827;28;20436;-76
2022/02/21 01:29:01;;;;;;;22.92;11.55;;;9.60;99.90;;;;;;5070876;28;20041;-75
2022/02/21 01:31:29;;;;;;;17.48;11.13;;;9.80;99.90;;;;;;5071092;28;20037;-74
2022/02/21 01:33:56;;;;;;;16.58;10.88;;;9.70;99.90;;;;;;5070999;28;20037;-76
2022/02/21 01:36:24;;;;;;;21.73;11.50;;;9.70;99.90;;;;;;5069789;28;20048;-76
2022/02/21 01:38:51;;;;;;;16.85;11.95;;;9.60;99.90;;;;;;5070549;28;20036;-72
2022/02/21 01:41:18;;;;;;;16.77;11.52;;;9.80;99.90;;;;;;5070729;28;20519;-72
2022/02/21 01:43:47;;;;;;;19.35;12.23;;;9.70;99.90;;;;;;5070912;28;20033;-73
2022/02/21 01:46:15;;;;;;;18.20;12.30;;;9.60;99.90;;;;;;5070458;28;20078;-72
2022/02/21 01:48:42;;;;;;;18.63;11.23;;;9.60;99.90;;;;;;5070088;28;20037;-77
2022/02/21 01:51:10;;;;;;;26.00;13.73;;;9.70;99.90;;;;;;5070576;28;20051;-78
2022/02/21 01:53:37;;;;;;;17.70;12.15;;;9.70;99.90;;;;;;5069461;28;20052;-74
2022/02/21 01:56:05;;;;;;;21.65;13.65;;;9.60;99.90;;;;;;5070190;28;20040;-75
2022/02/21 01:58:32;;;;;;;19.60;13.05;;;9.70;99.90;;;;;;5070594;28;20041;-73
2022/02/21 02:00:59;;;;;;;18.95;12.10;;;9.70;99.90;;;;;;5086366;28;20153;-77
2022/02/21 02:03:27;;;;;;;19.05;12.40;;;9.60;99.90;;;;;;5090450;28;20046;-72
2022/02/21 02:05:54;;;;;;;18.73;11.98;;;9.60;99.90;;;;;;5090439;28;20052;-73
2022/02/21 02:08:21;;;;;;;16.92;12.00;;;9.60;99.90;;;;;;5090114;28;20044;-74
2022/02/21 02:10:49;;;;;;;16.92;12.85;;;9.50;99.90;;;;;;5090195;28;20089;-73
2022/02/21 02:13:16;;;;;;;19.45;12.50;;;9.40;99.90;;;;;;5090494;28;20400;-74
2022/02/21 02:15:43;;;;;;;18.17;12.73;;;9.30;99.90;;;;;;5090646;28;20051;-72
2022/02/21 02:18:12;;;;;;;21.95;12.63;;;9.40;99.90;;;;;;5089989;28;20044;-72
2022/02/21 02:20:39;;;;;;;17.95;13.00;;;9.30;99.90;;;;;;5090616;28;20067;-78
2022/02/21 02:23:06;;;;;;;18.45;12.38;;;9.10;99.90;;;;;;5090230;28;20141;-76
2022/02/21 02:25:34;;;;;;;19.35;13.43;;;8.90;99.90;;;;;;5090140;28;20051;-77
2022/02/21 02:28:01;;;;;;;19.38;12.45;;;9.10;99.90;;;;;;5090202;28;20044;-75
2022/02/21 02:30:28;;;;;;;18.65;12.30;;;9.20;99.90;;;;;;5090490;28;20040;-75
2022/02/21 02:32:55;;;;;;;17.27;12.63;;;9.10;99.90;;;;;;5090559;28;20497;-72
2022/02/21 02:35:24;;;;;;;21.25;13.85;;;8.80;99.90;;;;;;5090590;28;20526;-75
2022/02/21 02:37:51;;;;;;;18.40;13.43;;;8.90;99.90;;;;;;5090831;28;20428;-72
2022/02/21 02:40:18;;;;;;;19.88;13.73;;;9.00;99.90;;;;;;5094384;28;20623;-72
2022/02/21 02:42:45;;;;;;;23.13;13.77;;;9.10;99.90;;;;;;5094573;28;20047;-72
2022/02/21 02:45:13;;;;;;;18.35;12.80;;;9.20;99.90;;;;;;5094244;28;20040;-74
2022/02/21 02:47:41;;;;;;;17.70;13.07;;;9.20;99.90;;;;;;5094544;28;20044;-71
2022/02/21 02:50:09;;;;;;;21.42;14.50;;;9.10;99.90;;;;;;5094213;28;20546;-76
2022/02/21 02:52:36;;;;;;;20.00;13.02;;;9.10;99.90;;;;;;5094220;28;20044;-73
2022/02/21 02:55:04;;;;;;;19.85;13.73;;;9.10;99.90;;;;;;5094437;28;20036;-75
2022/02/21 02:57:31;;;;;;;21.88;13.98;;;9.10;99.90;;;;;;5094048;28;20048;-75
2022/02/21 02:59:58;;;;;;;21.52;13.10;;;9.00;99.90;;;;;;5093693;28;20052;-77
2022/02/21 03:02:26;;;;;;;20.40;14.75;;;8.80;99.90;;;;;;5076046;28;20045;-75
2022/02/21 03:04:53;;;;;;;19.00;14.93;;;8.50;99.90;;;;;;5073719;28;20050;-73
2022/02/21 03:07:20;;;;;;;19.02;14.05;;;8.90;99.90;;;;;;5073335;28;20440;-75
2022/02/21 03:09:48;;;;;;;18.15;13.82;;;8.80;99.90;;;;;;5073366;28;20465;-74
2022/02/21 03:12:15;;;;;;;23.10;14.73;;;8.80;99.90;;;;;;5073783;28;20036;-72
2022/02/21 03:14:42;;;;;;;24.27;14.32;;;8.70;99.90;;;;;;5073374;28;20056;-70
2022/02/21 03:17:10;;;;;;;24.27;16.55;;;8.50;99.90;;;;;;5073886;28;20624;-72
2022/02/21 03:19:37;;;;;;;23.65;15.30;;;8.40;99.90;;;;;;5073359;28;20758;-73
2022/02/21 03:22:04;;;;;;;24.63;15.05;;;8.20;99.90;;;;;;5073373;28;20079;-75
2022/02/21 03:24:31;;;;;;;21.33;14.63;;;8.50;99.90;;;;;;5073516;28;20568;-76
2022/02/21 03:26:59;;;;;;;22.00;14.48;;;8.70;99.90;;;;;;5073361;28;20036;-76
2022/02/21 03:29:26;;;;;;;20.13;14.88;;;8.40;99.90;;;;;;5073846;28;20055;-73
2022/02/21 03:31:53;;;;;;;21.35;15.05;;;8.60;99.90;;;;;;5056065;28;20536;-78
2022/02/21 03:34:20;;;;;;;20.73;13.93;;;8.70;99.90;;;;;;5073720;28;20043;-75
2022/02/21 03:36:47;;;;;;;24.85;15.10;;;8.70;99.90;;;;;;5073281;28;20045;-77
2022/02/21 03:39:15;;;;;;;21.77;15.02;;;8.40;99.90;;;;;;5073041;28;20041;-74
2022/02/21 03:41:42;;;;;;;19.92;13.68;;;8.50;99.90;;;;;;5073454;28;20067;-76
2022/02/21 03:44:09;;;;;;;22.25;14.45;;;8.60;99.90;;;;;;5073209;28;20048;-75
2022/02/21 03:46:41;;;;;;;21.85;14.52;;;8.60;99.90;;;;;;5073215;28;20048;-75
2022/02/21 03:49:09;;;;;;;20.08;14.77;;;8.80;99.90;;;;;;5072522;28;20044;-76
2022/02/21 03:51:38;;;;;;;21.35;13.85;;;8.60;99.90;;;;;;5072483;28;20405;-75
2022/02/21 03:54:06;;;;;;;20.98;15.30;;;8.60;99.90;;;;;;5072855;28;20041;-76
2022/02/21 03:56:36;;;;;;;18.63;14.00;;;8.50;99.90;;;;;;5072961;28;20048;-77
2022/02/21 03:59:03;;;;;;;21.45;14.75;;;8.60;99.90;;;;;;5072946;28;20044;-76
2022/02/21 04:01:31;;;;;;;23.42;13.88;;;8.60;99.90;;;;;;5081601;28;20036;-75
2022/02/21 04:03:58;;;;;;;21.27;14.50;;;8.60;99.90;;;;;;5093050;28;20040;-75
2022/02/21 04:06:25;;;;;;;20.38;14.88;;;8.50;99.90;;;;;;5092799;28;20036;-75
2022/02/21 04:08:52;;;;;;;20.30;12.98;;;8.50;99.90;;;;;;5093253;28;20055;-77
2022/02/21 04:11:20;;;;;;;18.73;13.43;;;8.40;99.90;;;;;;5093346;28;20396;-76
2022/02/21 04:13:47;;;;;;;17.83;13.43;;;8.40;99.90;;;;;;5092166;28;20042;-73
2022/02/21 04:16:14;;;;;;;21.67;14.15;;;8.20;99.90;;;;;;5092949;28;20044;-76
2022/02/21 04:18:41;;;;;;;21.67;13.60;;;8.30;99.90;;;;;;5092239;28;20393;-74
2022/02/21 04:21:08;;;;;;;21.60;13.48;;;8.50;99.90;;;;;;5092728;28;20411;-74
2022/02/21 04:23:36;;;;;;;19.52;14.05;;;8.50;99.90;;;;;;5092576;28;20055;-75
2022/02/21 04:26:03;;;;;;;20.33;13.85;;;8.40;99.90;;;;;;5092391;28;20044;-76
2022/02/21 04:28:30;;;;;;;20.77;14.73;;;8.40;99.90;;;;;;5092350;28;20044;-72
2022/02/21 04:30:58;;;;;;;17.70;13.63;;;8.30;99.90;;;;;;5092596;28;20048;-76
2022/02/21 04:33:25;;;;;;;21.88;14.30;;;8.40;99.90;;;;;;5092201;28;20404;-70
2022/02/21 04:35:52;;;;;;;23.98;14.25;;;8.40;99.90;;;;;;5074313;28;20048;-78
2022/02/21 04:38:19;;;;;;;23.35;14.25;;;8.30;99.90;;;;;;5092382;28;20042;-77
2022/02/21 04:40:48;;;;;;;23.85;13.77;;;8.20;99.90;;;;;;5092884;28;20373;-76
2022/02/21 04:43:15;;;;;;;22.17;14.07;;;8.20;99.90;;;;;;5091929;28;20044;-77
2022/02/21 04:45:42;;;;;;;20.50;14.27;;;8.20;99.90;;;;;;5092563;28;20408;-73
2022/02/21 04:48:10;;;;;;;20.83;13.57;;;8.30;99.90;;;;;;5092096;28;20040;-74
2022/02/21 04:50:37;;;;;;;22.55;13.82;;;7.80;99.90;;;;;;5092033;28;20055;-71
2022/02/21 04:53:05;;;;;;;20.25;14.02;;;7.70;99.90;;;;;;5092203;28;20035;-71
2022/02/21 04:55:32;;;;;;;18.30;12.45;;;7.80;99.90;;;;;;5092059;28;20043;-74
2022/02/21 04:57:59;;;;;;;20.38;13.48;;;7.80;99.90;;;;;;5091815;28;20044;-74
2022/02/21 05:00:26;;;;;;;19.50;14.15;;;7.60;99.90;;;;;;5091575;28;20105;-74
2022/02/21 05:02:53;;;;;;;18.63;13.80;;;7.60;99.90;;;;;;5073872;28;20036;-75
2022/02/21 05:05:21;;;;;;;23.63;14.10;;;7.60;99.90;;;;;;5071267;28;20382;-75
2022/02/21 05:07:48;;;;;;;21.02;13.95;;;7.80;99.90;;;;;;5071787;28;20480;-70
2022/02/21 05:10:16;;;;;;;17.02;13.23;;;7.70;99.90;;;;;;5053713;28;20516;-76
2022/02/21 05:12:43;;;;;;;19.75;13.93;;;7.70;99.90;;;;;;5071606;28;20458;-72
2022/02/21 05:15:11;;;;;;;21.17;14.07;;;7.60;99.90;;;;;;5071245;28;20036;-75
2022/02/21 05:17:40;;;;;;;18.33;12.88;;;7.40;99.90;;;;;;5071429;28;20050;-74
2022/02/21 05:20:09;;;;;;;19.27;13.85;;;7.20;99.90;;;;;;5070918;28;20032;-73
2022/02/21 05:22:36;;;;;;;21.40;14.18;;;7.00;99.90;;;;;;5071633;28;20045;-75
2022/02/21 05:25:05;;;;;;;18.92;12.73;;;7.10;99.90;;;;;;5071501;28;20043;-75
2022/02/21 05:27:34;;;;;;;22.40;14.50;;;6.90;99.90;;;;;;5071380;28;20413;-74
2022/02/21 05:30:03;;;;;;;23.08;14.77;;;7.20;99.90;;;;;;5070591;28;20048;-73
2022/02/21 05:32:31;;;;;;;19.17;13.75;;;7.30;99.90;;;;;;5071408;28;20397;-75
2022/02/21 05:34:58;;;;;;;18.63;12.77;;;7.20;99.90;;;;;;5070787;28;20692;-74
2022/02/21 05:37:26;;;;;;;22.25;14.10;;;7.30;99.90;;;;;;5070927;28;20390;-79
2022/02/21 05:39:53;;;;;;;22.98;13.82;;;7.30;99.90;;;;;;5070756;28;20430;-78
2022/02/21 05:42:20;;;;;;;20.00;12.95;;;7.40;99.90;;;;;;5070956;28;20044;-75
2022/02/21 05:44:47;;;;;;;18.80;12.52;;;7.40;99.90;;;;;;5070641;28;20133;-75
2022/02/21 05:47:15;;;;;;;18.95;13.73;;;7.30;99.90;;;;;;5071105;28;20055;-74
2022/02/21 05:49:42;;;;;;;20.48;13.80;;;7.30;99.90;;;;;;5070359;28;20896;-80
2022/02/21 05:52:09;;;;;;;21.05;14.68;;;7.60;99.90;;;;;;5071187;28;20504;-74
2022/02/21 05:54:36;;;;;;;20.30;13.68;;;7.60;99.90;;;;;;5070887;28;20037;-77
2022/02/21 05:57:05;;;;;;;18.58;13.00;;;7.70;99.90;;;;;;5071258;28;20048;-75
2022/02/21 05:59:33;;;;;;;22.60;14.07;;;7.50;99.90;;;;;;5070499;28;20049;-73
2022/02/21 06:02:00;;;;;;;18.90;13.15;;;7.70;99.90;;;;;;5079732;28;20127;-74
2022/02/21 06:04:27;;;;;;;18.90;12.93;;;7.70;99.90;;;;;;5077792;28;20048;-74
2022/02/21 06:06:54;;;;;;;19.52;13.63;;;7.80;99.90;;;;;;5071092;28;20747;-73
2022/02/21 06:09:22;;;;;;;19.70;13.77;;;7.70;99.90;;;;;;5070412;28;20044;-73
2022/02/21 06:11:49;;;;;;;19.20;14.52;;;7.90;99.90;;;;;;5069994;28;20693;-75
2022/02/21 06:14:16;;;;;;;20.50;13.98;;;7.80;99.90;;;;;;5070094;28;20505;-77
2022/02/21 06:16:43;;;;;;;25.10;14.93;;;7.50;99.90;;;;;;5052879;28;20064;-77
2022/02/21 06:19:11;;;;;;;22.15;14.65;;;7.60;99.90;;;;;;5070368;28;20048;-79
2022/02/21 06:21:38;;;;;;;21.45;14.70;;;7.70;99.90;;;;;;5070213;28;20045;-79
2022/02/21 06:24:06;;;;;;;22.10;14.95;;;7.50;99.90;;;;;;5070886;28;20094;-74
2022/02/21 06:26:33;;;;;;;23.60;14.82;;;7.80;99.90;;;;;;5070299;28;20048;-81
2022/02/21 06:29:00;;;;;;;135.77;80.22;;;7.60;99.90;;;;;;5070642;28;20421;-74
2022/02/21 06:31:27;;;;;;;48.83;32.80;;;7.90;99.90;;;;;;5070098;28;20060;-73
2022/02/21 06:33:55;;;;;;;129.50;72.05;;;8.00;99.90;;;;;;5070442;28;20037;-76
2022/02/21 06:36:22;;;;;;;87.35;49.97;;;8.10;99.90;;;;;;5070372;28;20040;-75
2022/02/21 06:38:49;;;;;;;101.47;58.92;;;8.30;99.90;;;;;;5070429;28;20044;-76
2022/02/21 06:41:18;;;;;;;25.30;20.10;;;8.20;99.90;;;;;;5070221;28;20068;-78
2022/02/21 06:43:45;;;;;;;23.92;16.38;;;8.10;99.90;;;;;;5070132;28;20045;-75
2022/02/21 06:46:13;;;;;;;22.67;15.90;;;8.00;99.90;;;;;;5070018;28;20044;-78
2022/02/21 06:48:40;;;;;;;20.63;15.68;;;7.80;99.90;;;;;;5070257;28;20041;-76
2022/02/21 06:51:08;;;;;;;24.05;15.77;;;7.90;99.90;;;;;;5070096;28;20045;-75
2022/02/21 06:53:36;;;;;;;25.90;14.40;;;8.20;99.90;;;;;;5055048;28;20044;-77
2022/02/21 06:56:04;;;;;;;24.23;16.13;;;8.20;99.90;;;;;;5079185;28;20119;-77
2022/02/21 06:58:31;;;;;;;25.27;15.75;;;8.30;99.90;;;;;;5079757;28;20058;-75
2022/02/21 07:00:58;;;;;;;21.05;14.73;;;8.70;99.90;;;;;;5081568;28;20150;-76
2022/02/21 07:03:26;;;;;;;31.52;17.90;;;8.80;99.90;;;;;;5076379;28;20150;-76
2022/02/21 07:05:53;;;;;;;28.38;18.50;;;8.90;99.90;;;;;;5080955;28;20036;-79
2022/02/21 07:08:22;;;;;;;29.33;17.98;;;9.00;99.90;;;;;;5079064;28;20037;-71
2022/02/21 07:10:49;;;;;;;60.85;35.80;;;9.10;99.90;;;;;;5082048;28;20048;-73
2022/02/21 07:13:17;;;;;;;70.30;45.58;;;9.30;99.90;;;;;;5084377;28;20385;-74
2022/02/21 07:15:44;;;;;;;40.92;28.33;;;9.50;99.90;;;;;;5082529;28;20059;-76
2022/02/21 07:18:11;;;;;;;32.03;19.58;;;9.40;99.90;;;;;;5090013;28;20052;-78
2022/02/21 07:20:39;;;;;;;33.90;19.50;;;9.10;99.90;;;;;;5090271;28;20047;-77
2022/02/21 07:23:06;;;;;;;25.92;19.10;;;8.90;99.90;;;;;;5074716;28;20638;-71
2022/02/21 07:25:33;;;;;;;32.13;18.17;;;9.10;99.90;;;;;;5080444;28;20406;-79
2022/02/21 07:28:01;;;;;;;32.13;18.98;;;9.30;99.90;;;;;;5073218;28;20040;-77
2022/02/21 07:30:30;;;;;;;36.95;21.83;;;9.40;99.90;;;;;;5055877;28;20128;-71
2022/02/21 07:32:58;;;;;;;38.13;22.55;;;9.30;99.90;;;;;;5073381;28;20393;-73
2022/02/21 07:35:26;;;;;;;32.60;22.33;;;9.40;99.90;;;;;;5073376;28;20041;-70
2022/02/21 07:37:53;;;;;;;30.75;21.73;;;9.10;99.90;;;;;;5090830;28;20082;-71
2022/02/21 07:40:21;;;;;;;30.33;20.55;;;8.90;99.90;;;;;;5093244;28;20047;-70
2022/02/21 07:42:50;;;;;;;35.70;21.52;;;9.10;99.90;;;;;;5093062;28;20396;-72
2022/02/21 07:45:19;;;;;;;29.25;18.92;;;9.10;99.90;;;;;;5093289;28;20450;-73
2022/02/21 07:47:48;;;;;;;28.55;18.50;;;9.40;99.90;;;;;;5093136;28;20047;-73
2022/02/21 07:50:16;;;;;;;26.02;19.15;;;9.40;99.90;;;;;;5092453;28;20040;-71
2022/02/21 07:52:44;;;;;;;29.98;18.13;;;9.40;99.90;;;;;;5092802;28;20046;-76
2022/02/21 07:55:12;;;;;;;26.30;17.65;;;9.40;99.90;;;;;;5093892;28;20036;-75
2022/02/21 07:57:43;;;;;;;30.65;17.63;;;9.50;99.90;;;;;;5079337;28;20385;-74
2022/02/21 08:00:13;;;;;;;28.80;16.63;;;9.60;99.90;;;;;;5073064;28;20052;-74
2022/02/21 08:02:41;;;;;;;24.23;17.35;;;9.60;99.90;;;;;;5081489;28;20481;-74
2022/02/21 08:05:09;;;;;;;26.38;17.52;;;9.60;99.90;;;;;;5080798;28;20064;-74
2022/02/21 08:07:38;;;;;;;37.00;18.52;;;9.70;99.90;;;;;;5081529;28;20043;-72
2022/02/21 08:10:06;;;;;;;34.05;19.63;;;10.10;99.90;;;;;;5082676;28;20055;-72
2022/02/21 08:12:33;;;;;;;26.75;19.00;;;10.70;99.90;;;;;;5082032;28;20037;-71
2022/02/21 08:15:00;;;;;;;29.33;17.95;;;11.00;99.90;;;;;;5064330;28;20079;-72
2022/02/21 08:17:28;;;;;;;25.67;18.35;;;10.90;99.90;;;;;;5083766;28;20045;-75
2022/02/21 08:19:55;;;;;;;24.83;17.20;;;11.20;99.90;;;;;;5081376;28;20041;-75
2022/02/21 08:22:24;;;;;;;25.60;17.65;;;11.30;99.90;;;;;;5084194;28;20429;-74
2022/02/21 08:24:52;;;;;;;30.58;17.65;;;11.20;99.90;;;;;;5081927;28;20048;-75
2022/02/21 08:27:19;;;;;;;27.63;17.20;;;11.80;99.90;;;;;;5082246;28;20032;-76
2022/02/21 08:29:47;;;;;;;24.42;17.02;;;11.40;99.90;;;;;;5082867;28;20058;-75
2022/02/21 08:32:14;;;;;;;26.25;17.88;;;11.60;99.90;;;;;;5081883;28;20064;-74
2022/02/21 08:34:41;;;;;;;29.48;17.77;;;11.60;99.90;;;;;;5081636;28;20073;-73
2022/02/21 08:37:08;;;;;;;28.75;17.20;;;12.10;99.90;;;;;;5082446;28;20048;-75
2022/02/21 08:39:36;;;;;;;25.77;17.92;;;11.90;99.90;;;;;;5081531;28;20059;-75
2022/02/21 08:42:03;;;;;;;25.40;17.63;;;12.00;99.90;;;;;;5082111;28;20122;-77
2022/02/21 08:44:32;;;;;;;29.63;18.23;;;11.90;99.90;;;;;;5080440;28;20059;-72
2022/02/21 08:46:59;;;;;;;26.20;17.48;;;11.60;99.90;;;;;;5080957;28;20040;-72
2022/02/21 08:49:27;;;;;;;26.23;18.38;;;11.70;99.90;;;;;;5081803;28;20500;-74
2022/02/21 08:51:54;;;;;;;57.03;39.25;;;11.90;99.90;;;;;;5081917;28;20052;-75
2022/02/21 08:54:21;;;;;;;36.95;26.95;;;12.00;99.90;;;;;;5081430;28;20044;-77
2022/02/21 08:56:49;;;;;;;38.90;27.35;;;12.50;99.90;;;;;;5079956;28;20036;-73
2022/02/21 08:59:18;;;;;;;34.55;19.80;;;12.60;99.90;;;;;;5080668;28;20496;-76
2022/02/21 09:01:46;;;;;;;26.33;19.00;;;12.60;99.90;;;;;;5080584;28;20110;-73
2022/02/21 09:04:31;;;;;;;28.85;17.58;;;12.80;99.90;;;;;;5079737;28;20052;-76
2022/02/21 09:06:58;;;;;;;26.20;18.55;;;12.80;99.90;;;;;;5079924;28;20320;-72
2022/02/21 09:09:26;;;;;;;23.25;17.15;;;13.20;99.90;;;;;;5079293;28;20048;-73
2022/02/21 09:11:53;;;;;;;30.08;17.83;;;13.60;99.90;;;;;;5079264;28;20135;-71
2022/02/21 09:14:20;;;;;;;23.55;17.50;;;13.80;99.90;;;;;;5089085;28;20048;-71
2022/02/21 09:16:48;;;;;;;23.15;17.60;;;13.70;99.90;;;;;;5076553;28;20054;-72
2022/02/21 09:19:15;;;;;;;22.27;15.77;;;13.50;99.90;;;;;;5082751;28;20052;-74
2022/02/21 09:21:42;;;;;;;29.33;17.10;;;13.80;99.90;;;;;;5083891;28;20496;-76
2022/02/21 09:24:09;;;;;;;24.88;16.80;;;14.30;99.90;;;;;;5086597;28;20493;-73
2022/02/21 09:26:37;;;;;;;22.77;16.80;;;14.70;99.90;;;;;;5086450;28;20040;-76
2022/02/21 09:29:05;;;;;;;22.55;16.38;;;14.60;99.90;;;;;;5083148;28;20047;-71
2022/02/21 09:31:34;;;;;;;;;;;14.40;99.90;;;;;;5081219;28;20047;-71
2022/02/21 09:34:02;;;;;;;22.00;15.77;;;14.10;99.90;;;;;;5079314;28;20371;-75
2022/02/21 09:36:30;;;;;;;24.92;15.60;;;14.30;99.90;;;;;;5082690;28;20400;-72
2022/02/21 09:38:59;;;;;;;23.70;16.45;;;14.30;99.90;;;;;;5080200;28;20400;-71
2022/02/21 09:41:26;;;;;;;25.10;14.98;;;14.30;99.90;;;;;;5063400;28;20043;-74
2022/02/21 09:43:53;;;;;;;21.35;14.65;;;14.60;99.90;;;;;;5080086;28;20056;-75
2022/02/21 09:46:30;;;;;;;20.23;14.05;;;14.80;99.90;;;;;;5078873;28;20040;-73
2022/02/21 09:49:00;;;;;;;15.57;11.10;;;15.00;99.90;;;;;;5081343;28;20131;-73
2022/02/21 09:51:28;;;;;;;15.60;10.65;;;14.90;99.90;;;;;;5084056;28;20032;-72
2022/02/21 09:53:56;;;;;;;17.15;11.68;;;15.20;99.90;;;;;;5080991;28;20091;-73
2022/02/21 09:56:23;;;;;;;15.55;11.15;;;15.10;99.90;;;;;;5081356;28;20032;-71
2022/02/21 09:58:54;;;;;;;11.65;8.95;;;15.10;99.90;;;;;;5080969;28;20046;-75
2022/02/21 10:01:24;;;;;;;14.23;9.52;;;14.80;99.90;;;;;;5087253;28;20048;-74
2022/02/21 10:03:57;;;;;;;15.43;10.05;;;14.90;99.90;;;;;;5074446;28;20037;-75
2022/02/21 10:06:25;;;;;;;13.23;8.90;;;15.20;99.90;;;;;;5076508;28;20046;-79
2022/02/21 10:09:12;;;;;;;13.95;8.73;;;15.40;99.90;;;;;;5080866;28;20036;-71
2022/02/21 10:11:41;;;;;;;13.55;9.35;;;15.50;99.90;;;;;;5066914;28;20568;-76
2022/02/21 10:14:11;;;;;;;11.20;8.10;;;15.40;99.90;;;;;;5052628;28;20059;-74
2022/02/21 10:16:41;;;;;;;13.63;8.20;;;15.70;99.90;;;;;;5070531;28;20131;-74
2022/02/21 10:19:12;;;;;;;10.70;8.15;;;15.70;99.90;;;;;;5069811;28;20107;-72
2022/02/21 10:22:02;;;;;;;18.35;8.32;;;16.20;99.90;;;;;;5077538;28;20408;-71
2022/02/21 10:24:41;;;;;;;11.90;8.00;;;16.10;99.90;;;;;;5083312;28;20123;-72
2022/02/21 10:27:15;;;;;;;13.45;7.82;;;15.90;99.80;;;;;;5072672;28;20442;-72
2022/02/21 10:30:16;;;;;;;16.15;9.95;;;15.90;99.90;;;;;;5085378;28;20036;-75
2022/02/21 10:33:12;;;;;;;96.38;56.00;;;15.60;99.90;;;;;;5050371;28;20063;-73
2022/02/21 10:35:39;;;;;;;18.17;12.15;;;15.90;99.90;;;;;;5090404;28;20059;-75
2022/02/21 10:38:09;;;;;;;12.20;9.57;;;16.10;99.90;;;;;;5081841;28;20051;-71
2022/02/21 10:40:38;;;;;;;12.77;9.00;;;16.30;99.50;;;;;;5088725;28;20051;-73
2022/02/21 10:43:14;;;;;;;15.10;9.65;;;16.50;99.50;;;;;;5065476;28;20520;-71
2022/02/21 10:45:45;;;;;;;13.30;9.30;;;16.60;98.80;;;;;;5089993;28;20281;-73
2022/02/21 10:48:16;;;;;;;16.15;10.25;;;16.60;99.10;;;;;;5090390;28;20047;-71
2022/02/21 10:50:57;;;;;;;12.93;9.32;;;16.70;98.70;;;;;;5088900;28;20028;-74
2022/02/21 10:53:47;;;;;;;14.70;9.57;;;16.60;98.20;;;;;;5078366;28;20076;-72
2022/02/21 10:56:16;;;;;;;13.32;9.38;;;16.70;98.50;;;;;;5088850;28;20040;-74
2022/02/21 10:58:43;;;;;;;13.73;8.90;;;17.30;97.80;;;;;;5090684;28;20070;-72
2022/02/21 11:01:10;;;;;;;16.70;8.70;;;17.70;96.50;;;;;;5094350;28;20052;-73
2022/02/21 11:03:40;;;;;;;11.27;8.98;;;17.70;95.60;;;;;;5094169;28;20044;-73
2022/02/21 11:06:08;;;;;;;13.80;8.77;;;17.30;96.20;;;;;;5068702;28;20488;-73
2022/02/21 11:08:39;;;;;;;12.95;9.02;;;17.20;96.30;;;;;;5073826;28;20378;-73
2022/02/21 11:11:09;;;;;;;14.70;8.85;;;17.30;96.40;;;;;;5074412;28;20482;-75
2022/02/21 11:13:37;;;;;;;14.18;8.63;;;17.30;96.10;;;;;;5089547;28;20040;-71
2022/02/21 11:16:05;;;;;;;12.80;8.65;;;17.80;94.80;;;;;;5093912;28;20564;-73
2022/02/21 11:18:34;;;;;;;14.52;9.88;;;17.70;94.90;;;;;;5093435;28;20365;-76
2022/02/21 11:21:03;;;;;;;27.48;15.40;;;17.70;95.00;;;;;;5093858;28;20047;-77
2022/02/21 11:23:32;;;;;;;36.97;26.33;;;17.30;95.30;;;;;;5092690;28;20142;-75
2022/02/21 11:26:13;;;;;;;19.73;12.60;;;18.00;94.90;;;;;;5094233;28;20036;-75
2022/02/21 11:28:57;;;;;;;14.55;8.95;;;18.00;93.90;;;;;;5093193;28;20461;-74
2022/02/21 11:31:29;;;;;;;13.20;9.10;;;18.10;93.70;;;;;;5094228;28;20387;-77
2022/02/21 11:34:09;;;;;;;14.63;9.27;;;18.30;93.30;;;;;;5093504;28;20044;-74
2022/02/21 11:36:49;;;;;;;15.13;9.65;;;18.10;93.10;;;;;;5068879;28;20036;-74
2022/02/21 11:39:26;;;;;;;11.95;9.02;;;17.70;94.20;;;;;;5073366;28;20048;-78
2022/02/21 11:42:08;;;;;;;15.10;9.30;;;17.70;94.60;;;;;;5073446;28;20060;-77
2022/02/21 11:44:51;;;;;;;14.88;8.60;;;17.90;94.50;;;;;;5054774;28;20505;-74
2022/02/21 11:47:40;;;;;;;12.77;8.85;;;18.00;93.00;;;;;;5056014;28;20123;-75
2022/02/21 11:50:24;;;;;;;11.18;8.05;;;18.10;93.00;;;;;;5072601;28;20070;-78
2022/02/21 11:53:22;;;;;;;12.35;8.38;;;17.60;92.20;;;;;;5091002;28;20052;-78
2022/02/21 11:55:51;;;;;;;14.75;8.30;;;17.10;94.60;;;;;;5093672;28;20047;-75
2022/02/21 11:58:18;;;;;;;12.48;8.48;;;17.10;95.60;;;;;;5093392;28;20507;-75
2022/02/21 12:00:50;;;;;;;11.57;7.80;;;18.00;94.00;;;;;;5093302;28;20048;-73
2022/02/21 12:03:26;;;;;;;14.68;8.35;;;18.50;92.00;;;;;;5073206;28;20055;-74
2022/02/21 12:06:17;;;;;;;13.68;8.45;;;19.00;90.90;;;;;;5073911;28;20083;-75
2022/02/21 12:09:03;;;;;;;11.57;8.00;;;19.00;89.10;;;;;;5093243;28;20040;-74
2022/02/21 12:11:30;;;;;;;11.35;7.70;;;19.40;87.20;;;;;;5074691;28;20044;-74
2022/02/21 12:14:12;;;;;;;10.75;7.57;;;19.50;85.00;;;;;;5092999;28;20044;-75
2022/02/21 12:17:09;;;;;;;10.63;6.72;;;20.00;82.90;;;;;;5093075;28;20033;-75
2022/02/21 12:19:38;;;;;;;9.43;6.55;;;20.40;79.50;;;;;;5072184;28;20052;-75
2022/02/21 12:22:06;;;;;;;8.77;5.63;;;20.40;79.10;;;;;;5082205;28;20044;-78
2022/02/21 12:24:34;;;;;;;9.30;5.85;;;20.30;76.60;;;;;;5072907;28;20040;-79
2022/02/21 12:27:13;;;;;;;10.68;5.60;;;20.50;76.20;;;;;;5072847;28;20068;-76
2022/02/21 12:29:40;;;;;;;9.35;5.50;;;20.70;74.40;;;;;;5076369;28;20036;-74
2022/02/21 12:32:11;;;;;;;9.45;6.10;;;20.60;75.20;;;;;;5092901;28;20374;-77
2022/02/21 12:34:39;;;;;;;10.70;5.70;;;20.80;73.80;;;;;;5092170;28;20048;-79
2022/02/21 12:37:11;;;;;;;9.63;5.75;;;21.60;71.30;;;;;;5093019;28;20040;-78
2022/02/21 12:39:41;;;;;;;9.55;5.30;;;22.40;68.90;;;;;;5092978;28;20058;-80
2022/02/21 12:42:09;;;;;;;11.10;5.57;;;23.20;66.60;;;;;;5093024;28;20119;-76
2022/02/21 12:44:36;;;;;;;12.48;6.10;;;22.10;67.60;;;;;;5092355;28;20292;-80